Accueil
METAR-TAF:

METAR-TAF

Aéroports :

Aéroport de Dortmund

Dortmund, Allemagne

latitude: 51-31N, longitude: 007-37E, altitude: 127 m

Observation

Le bulletin a été fait il y a 26 minutes, à 19:50 UTC
Vent 7 kt de sud
Température 10°C
Humidité 71%
Pression 1030 hPa
Visibilité 10 km ou plus
pas de nuages en-dessous de 1500 mètres et pas de cumulonimbus.

METAR: EDLW 061950Z 17007KT CAVOK 10/05 Q1030

Heure: 22:16 (20:16 UTC)

Prévision

Le bulletin a été fait il y a 3 heures et 16 minutes, à 17:00 UTC
Prévision valable du 06 à 18 UTC au 07 à 18 UTC
Vent 8 kt de sud
Visibilité 10 km ou plus
pas de nuages en-dessous de 1500 mètres et pas de cumulonimbus.

TAF: EDLW 061700Z 0618/0718 19008KT CAVOK

Observations et prévisions météorologiques de plus de 4000 aéroports (messages METAR et TAF).

Les stations disponibles sont représentées par des disques jaunes et rouges sur la carte.

Passer la souris dessus pour voir le nom de la station.

Cliquer dessus pour voir les observations et prévisions météorologiques.

Pour changer de carte: cliquez sur les boutons verts avec une croix noire pour zoomer, sur le bouton vert avec un tiret pour effectuer un zoom arrière, ou sur les flèches vertes pour les cartes adjacentes.


METAR-TAF: